sensor_id;sensor_type;location;lat;lon;timestamp;P1;durP1;ratioP1;P2;durP2;ratioP2
28174;SDS011;59417;44.788;10.334;2023-03-01T00:01:29;37.08;;;24.00;;
28174;SDS011;59417;44.788;10.334;2023-03-01T00:03:56;34.80;;;25.33;;
28174;SDS011;59417;44.788;10.334;2023-03-01T00:06:22;35.25;;;23.33;;
28174;SDS011;59417;44.788;10.334;2023-03-01T00:08:48;35.13;;;24.40;;
28174;SDS011;59417;44.788;10.334;2023-03-01T00:11:24;32.95;;;24.00;;
28174;SDS011;59417;44.788;10.334;2023-03-01T00:13:52;38.30;;;24.77;;
28174;SDS011;59417;44.788;10.334;2023-03-01T00:16:20;39.25;;;24.08;;
28174;SDS011;59417;44.788;10.334;2023-03-01T00:18:48;25.90;;;17.13;;
28174;SDS011;59417;44.788;10.334;2023-03-01T00:21:17;31.13;;;19.42;;
28174;SDS011;59417;44.788;10.334;2023-03-01T00:23:44;29.88;;;19.40;;
28174;SDS011;59417;44.788;10.334;2023-03-01T00:26:11;24.10;;;18.85;;
28174;SDS011;59417;44.788;10.334;2023-03-01T00:28:39;25.55;;;18.70;;
28174;SDS011;59417;44.788;10.334;2023-03-01T00:31:11;25.50;;;17.98;;
28174;SDS011;59417;44.788;10.334;2023-03-01T00:33:38;29.75;;;18.15;;
28174;SDS011;59417;44.788;10.334;2023-03-01T00:36:05;28.98;;;17.83;;
28174;SDS011;59417;44.788;10.334;2023-03-01T00:38:34;24.60;;;18.00;;
28174;SDS011;59417;44.788;10.334;2023-03-01T00:41:04;29.13;;;18.20;;
28174;SDS011;59417;44.788;10.334;2023-03-01T00:43:31;27.02;;;17.23;;
28174;SDS011;59417;44.788;10.334;2023-03-01T00:46:05;25.90;;;16.45;;
28174;SDS011;59417;44.788;10.334;2023-03-01T00:48:39;24.85;;;17.33;;
28174;SDS011;59417;44.788;10.334;2023-03-01T00:51:07;23.73;;;15.80;;
28174;SDS011;59417;44.788;10.334;2023-03-01T00:53:38;19.40;;;15.32;;
28174;SDS011;59417;44.788;10.334;2023-03-01T00:56:04;25.05;;;17.02;;
28174;SDS011;59417;44.788;10.334;2023-03-01T00:58:31;23.25;;;15.68;;
28174;SDS011;59417;44.788;10.334;2023-03-01T01:00:57;23.38;;;16.92;;
28174;SDS011;59417;44.788;10.334;2023-03-01T01:03:23;24.20;;;16.67;;
28174;SDS011;59417;44.788;10.334;2023-03-01T01:05:50;21.50;;;14.88;;
28174;SDS011;59417;44.788;10.334;2023-03-01T01:08:19;23.77;;;14.68;;
28174;SDS011;59417;44.788;10.334;2023-03-01T01:10:45;22.48;;;14.68;;
28174;SDS011;59417;44.788;10.334;2023-03-01T01:13:12;22.65;;;14.48;;
28174;SDS011;59417;44.788;10.334;2023-03-01T01:15:38;21.65;;;15.77;;
28174;SDS011;59417;44.788;10.334;2023-03-01T01:18:04;19.33;;;14.75;;
28174;SDS011;59417;44.788;10.334;2023-03-01T01:20:29;21.90;;;15.77;;
28174;SDS011;59417;44.788;10.334;2023-03-01T01:22:55;24.13;;;14.68;;
28174;SDS011;59417;44.788;10.334;2023-03-01T01:25:20;21.13;;;14.75;;
28174;SDS011;59417;44.788;10.334;2023-03-01T01:27:46;26.88;;;15.20;;
28174;SDS011;59417;44.788;10.334;2023-03-01T01:30:11;20.40;;;15.15;;
28174;SDS011;59417;44.788;10.334;2023-03-01T01:32:38;22.38;;;15.98;;
28174;SDS011;59417;44.788;10.334;2023-03-01T01:35:04;22.90;;;15.05;;
28174;SDS011;59417;44.788;10.334;2023-03-01T01:37:30;21.63;;;14.73;;
28174;SDS011;59417;44.788;10.334;2023-03-01T01:39:58;22.55;;;15.45;;
28174;SDS011;59417;44.788;10.334;2023-03-01T01:42:25;20.63;;;15.35;;
28174;SDS011;59417;44.788;10.334;2023-03-01T01:48:03;22.02;;;14.65;;
28174;SDS011;59417;44.788;10.334;2023-03-01T01:50:32;20.75;;;15.35;;
28174;SDS011;59417;44.788;10.334;2023-03-01T01:53:04;21.55;;;14.63;;
28174;SDS011;59417;44.788;10.334;2023-03-01T01:58:01;23.48;;;15.02;;
28174;SDS011;59417;44.788;10.334;2023-03-01T02:03:03;24.27;;;15.50;;
28174;SDS011;59417;44.788;10.334;2023-03-01T02:08:06;20.50;;;14.45;;
28174;SDS011;59417;44.788;10.334;2023-03-01T02:10:33;21.15;;;15.82;;
28174;SDS011;59417;44.788;10.334;2023-03-01T02:13:00;20.77;;;16.00;;
28174;SDS011;59417;44.788;10.334;2023-03-01T02:15:26;20.60;;;15.05;;
28174;SDS011;59417;44.788;10.334;2023-03-01T02:17:56;20.88;;;15.65;;
28174;SDS011;59417;44.788;10.334;2023-03-01T02:20:23;23.27;;;16.85;;
28174;SDS011;59417;44.788;10.334;2023-03-01T02:22:51;24.20;;;15.60;;
28174;SDS011;59417;44.788;10.334;2023-03-01T02:30:41;27.05;;;15.73;;
28174;SDS011;59417;44.788;10.334;2023-03-01T02:33:28;24.67;;;15.60;;
28174;SDS011;59417;44.788;10.334;2023-03-01T02:35:58;24.85;;;17.83;;
28174;SDS011;59417;44.788;10.334;2023-03-01T02:38:26;22.83;;;16.33;;
28174;SDS011;59417;44.788;10.334;2023-03-01T02:40:53;23.92;;;16.75;;
28174;SDS011;59417;44.788;10.334;2023-03-01T02:43:20;21.35;;;15.95;;
28174;SDS011;59417;44.788;10.334;2023-03-01T02:45:50;26.83;;;16.30;;
28174;SDS011;59417;44.788;10.334;2023-03-01T02:48:17;25.42;;;17.00;;
28174;SDS011;59417;44.788;10.334;2023-03-01T02:50:47;28.67;;;15.93;;
28174;SDS011;59417;44.788;10.334;2023-03-01T02:53:34;21.33;;;16.38;;
28174;SDS011;59417;44.788;10.334;2023-03-01T02:56:11;25.80;;;16.98;;
28174;SDS011;59417;44.788;10.334;2023-03-01T02:58:42;22.88;;;16.80;;
28174;SDS011;59417;44.788;10.334;2023-03-01T03:01:16;23.92;;;16.83;;
28174;SDS011;59417;44.788;10.334;2023-03-01T03:03:43;26.58;;;16.63;;
28174;SDS011;59417;44.788;10.334;2023-03-01T03:06:09;24.83;;;17.35;;
28174;SDS011;59417;44.788;10.334;2023-03-01T03:08:35;27.23;;;17.20;;
28174;SDS011;59417;44.788;10.334;2023-03-01T03:11:01;23.45;;;16.23;;
28174;SDS011;59417;44.788;10.334;2023-03-01T03:13:27;25.58;;;17.75;;
28174;SDS011;59417;44.788;10.334;2023-03-01T03:15:55;24.13;;;17.15;;
28174;SDS011;59417;44.788;10.334;2023-03-01T03:18:21;25.65;;;17.48;;
28174;SDS011;59417;44.788;10.334;2023-03-01T03:20:48;25.60;;;16.80;;
28174;SDS011;59417;44.788;10.334;2023-03-01T03:25:43;31.52;;;18.17;;
28174;SDS011;59417;44.788;10.334;2023-03-01T03:28:09;24.65;;;16.55;;
28174;SDS011;59417;44.788;10.334;2023-03-01T03:30:38;25.48;;;18.00;;
28174;SDS011;59417;44.788;10.334;2023-03-01T03:33:06;25.63;;;17.35;;
28174;SDS011;59417;44.788;10.334;2023-03-01T03:35:33;26.60;;;17.30;;
28174;SDS011;59417;44.788;10.334;2023-03-01T03:38:04;23.58;;;16.20;;
28174;SDS011;59417;44.788;10.334;2023-03-01T03:43:02;24.15;;;15.85;;
28174;SDS011;59417;44.788;10.334;2023-03-01T03:45:29;30.05;;;18.17;;
28174;SDS011;59417;44.788;10.334;2023-03-01T03:48:00;25.08;;;17.00;;
28174;SDS011;59417;44.788;10.334;2023-03-01T03:50:27;26.33;;;17.48;;
28174;SDS011;59417;44.788;10.334;2023-03-01T03:52:55;26.33;;;17.35;;
28174;SDS011;59417;44.788;10.334;2023-03-01T03:55:21;24.60;;;17.15;;
28174;SDS011;59417;44.788;10.334;2023-03-01T03:57:47;22.70;;;16.95;;
28174;SDS011;59417;44.788;10.334;2023-03-01T04:00:20;25.65;;;17.42;;
28174;SDS011;59417;44.788;10.334;2023-03-01T04:02:47;26.45;;;18.52;;
28174;SDS011;59417;44.788;10.334;2023-03-01T04:05:14;26.05;;;16.75;;
28174;SDS011;59417;44.788;10.334;2023-03-01T04:07:41;25.00;;;17.75;;
28174;SDS011;59417;44.788;10.334;2023-03-01T04:10:12;25.35;;;17.55;;
28174;SDS011;59417;44.788;10.334;2023-03-01T04:12:39;27.50;;;17.83;;
28174;SDS011;59417;44.788;10.334;2023-03-01T04:15:05;24.95;;;17.50;;
28174;SDS011;59417;44.788;10.334;2023-03-01T04:17:42;23.48;;;17.33;;
28174;SDS011;59417;44.788;10.334;2023-03-01T04:20:10;24.40;;;16.38;;
28174;SDS011;59417;44.788;10.334;2023-03-01T04:22:37;24.23;;;17.52;;
28174;SDS011;59417;44.788;10.334;2023-03-01T04:25:07;24.50;;;16.65;;
28174;SDS011;59417;44.788;10.334;2023-03-01T04:27:33;24.20;;;17.48;;
28174;SDS011;59417;44.788;10.334;2023-03-01T04:30:02;29.15;;;17.10;;
28174;SDS011;59417;44.788;10.334;2023-03-01T04:32:29;25.27;;;17.50;;
28174;SDS011;59417;44.788;10.334;2023-03-01T04:34:55;23.67;;;17.15;;
28174;SDS011;59417;44.788;10.334;2023-03-01T04:37:20;28.63;;;16.92;;
28174;SDS011;59417;44.788;10.334;2023-03-01T04:39:46;25.52;;;16.45;;
28174;SDS011;59417;44.788;10.334;2023-03-01T04:42:23;25.92;;;17.33;;
28174;SDS011;59417;44.788;10.334;2023-03-01T04:44:48;24.67;;;15.88;;
28174;SDS011;59417;44.788;10.334;2023-03-01T04:47:16;22.45;;;16.58;;
28174;SDS011;59417;44.788;10.334;2023-03-01T04:49:42;22.05;;;14.93;;
28174;SDS011;59417;44.788;10.334;2023-03-01T04:52:08;24.23;;;16.75;;
28174;SDS011;59417;44.788;10.334;2023-03-01T04:54:34;24.48;;;16.80;;
28174;SDS011;59417;44.788;10.334;2023-03-01T04:57:01;26.80;;;16.52;;
28174;SDS011;59417;44.788;10.334;2023-03-01T04:59:28;25.52;;;16.83;;
28174;SDS011;59417;44.788;10.334;2023-03-01T05:01:54;26.75;;;17.50;;
28174;SDS011;59417;44.788;10.334;2023-03-01T05:04:24;26.73;;;17.60;;
28174;SDS011;59417;44.788;10.334;2023-03-01T05:06:50;27.50;;;17.50;;
28174;SDS011;59417;44.788;10.334;2023-03-01T05:09:16;26.33;;;16.23;;
28174;SDS011;59417;44.788;10.334;2023-03-01T05:11:42;22.88;;;15.80;;
28174;SDS011;59417;44.788;10.334;2023-03-01T05:14:08;27.77;;;17.30;;
28174;SDS011;59417;44.788;10.334;2023-03-01T05:16:35;23.77;;;16.50;;
28174;SDS011;59417;44.788;10.334;2023-03-01T05:19:02;27.00;;;17.40;;
28174;SDS011;59417;44.788;10.334;2023-03-01T05:21:39;26.08;;;16.77;;
28174;SDS011;59417;44.788;10.334;2023-03-01T05:24:25;23.35;;;16.67;;
28174;SDS011;59417;44.788;10.334;2023-03-01T05:26:50;30.95;;;17.27;;
28174;SDS011;59417;44.788;10.334;2023-03-01T05:29:19;26.23;;;16.75;;
28174;SDS011;59417;44.788;10.334;2023-03-01T05:34:19;28.75;;;16.75;;
28174;SDS011;59417;44.788;10.334;2023-03-01T05:36:48;25.50;;;17.67;;
28174;SDS011;59417;44.788;10.334;2023-03-01T05:39:16;24.33;;;15.90;;
28174;SDS011;59417;44.788;10.334;2023-03-01T05:41:42;25.15;;;17.65;;
28174;SDS011;59417;44.788;10.334;2023-03-01T05:44:07;30.67;;;17.83;;
28174;SDS011;59417;44.788;10.334;2023-03-01T05:46:36;26.08;;;16.85;;
28174;SDS011;59417;44.788;10.334;2023-03-01T05:49:02;26.90;;;16.92;;
28174;SDS011;59417;44.788;10.334;2023-03-01T05:51:29;27.60;;;17.25;;
28174;SDS011;59417;44.788;10.334;2023-03-01T05:53:55;28.05;;;17.65;;
28174;SDS011;59417;44.788;10.334;2023-03-01T05:56:20;23.15;;;17.27;;
28174;SDS011;59417;44.788;10.334;2023-03-01T05:58:47;26.33;;;17.75;;
28174;SDS011;59417;44.788;10.334;2023-03-01T06:01:14;24.77;;;17.55;;
28174;SDS011;59417;44.788;10.334;2023-03-01T06:03:40;23.27;;;16.90;;
28174;SDS011;59417;44.788;10.334;2023-03-01T06:06:06;29.50;;;18.70;;
28174;SDS011;59417;44.788;10.334;2023-03-01T06:08:32;24.40;;;17.02;;
28174;SDS011;59417;44.788;10.334;2023-03-01T06:10:57;30.08;;;18.63;;
28174;SDS011;59417;44.788;10.334;2023-03-01T06:13:23;27.58;;;17.17;;
28174;SDS011;59417;44.788;10.334;2023-03-01T06:15:49;28.48;;;16.88;;
28174;SDS011;59417;44.788;10.334;2023-03-01T06:18:15;25.83;;;16.95;;
28174;SDS011;59417;44.788;10.334;2023-03-01T06:20:41;26.52;;;18.13;;
28174;SDS011;59417;44.788;10.334;2023-03-01T06:23:06;25.55;;;17.83;;
28174;SDS011;59417;44.788;10.334;2023-03-01T06:25:32;30.08;;;18.60;;
28174;SDS011;59417;44.788;10.334;2023-03-01T06:27:58;32.38;;;19.00;;
28174;SDS011;59417;44.788;10.334;2023-03-01T06:30:24;25.38;;;17.88;;
28174;SDS011;59417;44.788;10.334;2023-03-01T06:32:51;30.02;;;17.58;;
28174;SDS011;59417;44.788;10.334;2023-03-01T06:35:17;25.67;;;18.50;;
28174;SDS011;59417;44.788;10.334;2023-03-01T06:37:44;26.60;;;18.98;;
28174;SDS011;59417;44.788;10.334;2023-03-01T06:40:11;29.27;;;18.73;;
28174;SDS011;59417;44.788;10.334;2023-03-01T06:42:39;30.40;;;17.33;;
28174;SDS011;59417;44.788;10.334;2023-03-01T06:45:07;27.27;;;18.05;;
28174;SDS011;59417;44.788;10.334;2023-03-01T06:47:33;27.88;;;18.50;;
28174;SDS011;59417;44.788;10.334;2023-03-01T06:50:00;26.25;;;17.45;;
28174;SDS011;59417;44.788;10.334;2023-03-01T06:52:28;35.72;;;19.05;;
28174;SDS011;59417;44.788;10.334;2023-03-01T06:54:54;29.17;;;18.30;;
28174;SDS011;59417;44.788;10.334;2023-03-01T06:57:20;27.33;;;18.42;;
28174;SDS011;59417;44.788;10.334;2023-03-01T06:59:46;30.60;;;19.63;;
28174;SDS011;59417;44.788;10.334;2023-03-01T07:02:12;32.35;;;19.15;;
28174;SDS011;59417;44.788;10.334;2023-03-01T07:04:39;27.25;;;18.33;;
28174;SDS011;59417;44.788;10.334;2023-03-01T07:07:05;30.40;;;18.65;;
28174;SDS011;59417;44.788;10.334;2023-03-01T07:09:31;26.27;;;18.40;;
28174;SDS011;59417;44.788;10.334;2023-03-01T07:11:56;27.50;;;16.95;;
28174;SDS011;59417;44.788;10.334;2023-03-01T07:14:25;27.35;;;18.48;;
28174;SDS011;59417;44.788;10.334;2023-03-01T07:16:51;26.77;;;17.15;;
28174;SDS011;59417;44.788;10.334;2023-03-01T07:19:17;24.05;;;17.27;;
28174;SDS011;59417;44.788;10.334;2023-03-01T07:21:43;25.38;;;17.77;;
28174;SDS011;59417;44.788;10.334;2023-03-01T07:24:09;29.52;;;18.15;;
28174;SDS011;59417;44.788;10.334;2023-03-01T07:26:34;27.33;;;17.98;;
28174;SDS011;59417;44.788;10.334;2023-03-01T07:29:01;28.90;;;16.45;;
28174;SDS011;59417;44.788;10.334;2023-03-01T07:31:28;28.25;;;14.88;;
28174;SDS011;59417;44.788;10.334;2023-03-01T07:33:54;25.60;;;15.85;;
28174;SDS011;59417;44.788;10.334;2023-03-01T07:36:19;24.23;;;15.13;;
28174;SDS011;59417;44.788;10.334;2023-03-01T07:38:45;24.15;;;16.50;;
28174;SDS011;59417;44.788;10.334;2023-03-01T07:41:11;26.30;;;16.55;;
28174;SDS011;59417;44.788;10.334;2023-03-01T07:43:36;27.77;;;16.65;;
28174;SDS011;59417;44.788;10.334;2023-03-01T07:46:02;26.63;;;17.13;;
28174;SDS011;59417;44.788;10.334;2023-03-01T07:48:29;28.67;;;17.55;;
28174;SDS011;59417;44.788;10.334;2023-03-01T07:51:00;24.92;;;16.02;;
28174;SDS011;59417;44.788;10.334;2023-03-01T07:53:26;24.27;;;16.40;;
28174;SDS011;59417;44.788;10.334;2023-03-01T07:56:02;25.25;;;17.13;;
28174;SDS011;59417;44.788;10.334;2023-03-01T07:58:36;26.80;;;16.10;;
28174;SDS011;59417;44.788;10.334;2023-03-01T08:01:04;25.73;;;16.70;;
28174;SDS011;59417;44.788;10.334;2023-03-01T08:03:31;26.52;;;16.00;;
28174;SDS011;59417;44.788;10.334;2023-03-01T08:06:01;25.45;;;15.25;;
28174;SDS011;59417;44.788;10.334;2023-03-01T08:08:28;27.45;;;17.15;;
28174;SDS011;59417;44.788;10.334;2023-03-01T08:10:57;21.00;;;14.98;;
28174;SDS011;59417;44.788;10.334;2023-03-01T08:13:23;22.92;;;14.57;;
28174;SDS011;59417;44.788;10.334;2023-03-01T08:15:49;26.95;;;16.35;;
28174;SDS011;59417;44.788;10.334;2023-03-01T08:18:16;25.13;;;15.43;;
28174;SDS011;59417;44.788;10.334;2023-03-01T08:20:42;30.98;;;17.08;;
28174;SDS011;59417;44.788;10.334;2023-03-01T08:23:08;31.02;;;16.70;;
28174;SDS011;59417;44.788;10.334;2023-03-01T08:25:33;21.38;;;14.82;;
28174;SDS011;59417;44.788;10.334;2023-03-01T08:27:59;26.83;;;16.63;;
28174;SDS011;59417;44.788;10.334;2023-03-01T08:30:25;27.15;;;16.80;;
28174;SDS011;59417;44.788;10.334;2023-03-01T08:32:50;23.83;;;15.00;;
28174;SDS011;59417;44.788;10.334;2023-03-01T08:35:16;25.10;;;16.50;;
28174;SDS011;59417;44.788;10.334;2023-03-01T08:37:42;20.75;;;14.48;;
28174;SDS011;59417;44.788;10.334;2023-03-01T08:40:08;26.35;;;14.45;;
28174;SDS011;59417;44.788;10.334;2023-03-01T08:42:35;25.27;;;16.15;;
28174;SDS011;59417;44.788;10.334;2023-03-01T08:45:01;22.55;;;15.27;;
28174;SDS011;59417;44.788;10.334;2023-03-01T08:47:30;23.13;;;15.10;;
28174;SDS011;59417;44.788;10.334;2023-03-01T08:49:56;23.23;;;15.77;;
28174;SDS011;59417;44.788;10.334;2023-03-01T08:52:21;21.50;;;15.23;;
28174;SDS011;59417;44.788;10.334;2023-03-01T08:54:47;27.40;;;14.98;;
28174;SDS011;59417;44.788;10.334;2023-03-01T08:57:14;24.02;;;15.85;;
28174;SDS011;59417;44.788;10.334;2023-03-01T08:59:42;31.08;;;17.42;;
28174;SDS011;59417;44.788;10.334;2023-03-01T09:02:12;26.77;;;15.77;;
28174;SDS011;59417;44.788;10.334;2023-03-01T09:04:40;26.88;;;15.77;;
28174;SDS011;59417;44.788;10.334;2023-03-01T09:07:06;24.98;;;16.02;;
28174;SDS011;59417;44.788;10.334;2023-03-01T09:09:32;24.90;;;15.93;;
28174;SDS011;59417;44.788;10.334;2023-03-01T09:11:57;21.75;;;16.15;;
28174;SDS011;59417;44.788;10.334;2023-03-01T09:14:23;25.30;;;15.35;;
28174;SDS011;59417;44.788;10.334;2023-03-01T09:16:48;27.60;;;15.77;;
28174;SDS011;59417;44.788;10.334;2023-03-01T09:19:14;25.80;;;15.23;;
28174;SDS011;59417;44.788;10.334;2023-03-01T09:21:40;25.45;;;15.02;;
28174;SDS011;59417;44.788;10.334;2023-03-01T09:24:06;23.58;;;16.33;;
28174;SDS011;59417;44.788;10.334;2023-03-01T09:26:36;25.05;;;15.95;;
28174;SDS011;59417;44.788;10.334;2023-03-01T09:29:05;22.23;;;14.50;;
28174;SDS011;59417;44.788;10.334;2023-03-01T09:31:30;24.52;;;15.73;;
28174;SDS011;59417;44.788;10.334;2023-03-01T09:33:56;25.63;;;15.68;;
28174;SDS011;59417;44.788;10.334;2023-03-01T09:36:23;23.80;;;14.55;;
28174;SDS011;59417;44.788;10.334;2023-03-01T09:39:04;26.98;;;15.20;;
28174;SDS011;59417;44.788;10.334;2023-03-01T09:47:20;27.55;;;15.32;;
28174;SDS011;59417;44.788;10.334;2023-03-01T09:49:58;25.25;;;14.68;;
28174;SDS011;59417;44.788;10.334;2023-03-01T09:52:40;22.15;;;14.55;;
28174;SDS011;59417;44.788;10.334;2023-03-01T09:55:09;21.60;;;12.38;;
28174;SDS011;59417;44.788;10.334;2023-03-01T10:00:18;23.08;;;13.32;;
28174;SDS011;59417;44.788;10.334;2023-03-01T10:02:48;25.50;;;15.75;;
28174;SDS011;59417;44.788;10.334;2023-03-01T10:08:18;22.75;;;14.63;;
28174;SDS011;59417;44.788;10.334;2023-03-01T10:10:48;28.27;;;15.93;;
28174;SDS011;59417;44.788;10.334;2023-03-01T10:15:59;21.52;;;12.30;;
28174;SDS011;59417;44.788;10.334;2023-03-01T10:18:31;21.13;;;12.88;;
28174;SDS011;59417;44.788;10.334;2023-03-01T10:21:15;23.52;;;13.43;;
28174;SDS011;59417;44.788;10.334;2023-03-01T10:23:44;20.67;;;14.38;;
28174;SDS011;59417;44.788;10.334;2023-03-01T10:26:20;23.05;;;13.63;;
28174;SDS011;59417;44.788;10.334;2023-03-01T10:29:10;22.13;;;13.05;;
28174;SDS011;59417;44.788;10.334;2023-03-01T10:31:50;22.50;;;13.15;;
28174;SDS011;59417;44.788;10.334;2023-03-01T10:34:19;21.90;;;13.23;;
28174;SDS011;59417;44.788;10.334;2023-03-01T10:36:47;24.17;;;13.52;;
28174;SDS011;59417;44.788;10.334;2023-03-01T10:39:17;17.98;;;12.52;;
28174;SDS011;59417;44.788;10.334;2023-03-01T10:45:14;21.70;;;12.82;;
28174;SDS011;59417;44.788;10.334;2023-03-01T10:47:42;19.33;;;12.25;;
28174;SDS011;59417;44.788;10.334;2023-03-01T10:50:17;24.25;;;13.10;;
28174;SDS011;59417;44.788;10.334;2023-03-01T10:52:55;19.38;;;11.82;;
28174;SDS011;59417;44.788;10.334;2023-03-01T10:55:41;21.08;;;12.20;;
28174;SDS011;59417;44.788;10.334;2023-03-01T11:03:27;14.73;;;10.38;;
28174;SDS011;59417;44.788;10.334;2023-03-01T11:08:29;19.48;;;12.70;;
28174;SDS011;59417;44.788;10.334;2023-03-01T11:13:51;17.83;;;11.30;;
28174;SDS011;59417;44.788;10.334;2023-03-01T11:16:27;18.40;;;11.75;;
28174;SDS011;59417;44.788;10.334;2023-03-01T11:19:04;23.00;;;12.43;;
28174;SDS011;59417;44.788;10.334;2023-03-01T11:24:18;22.08;;;12.57;;
28174;SDS011;59417;44.788;10.334;2023-03-01T11:26:50;18.73;;;12.73;;
28174;SDS011;59417;44.788;10.334;2023-03-01T11:29:26;20.48;;;11.60;;
28174;SDS011;59417;44.788;10.334;2023-03-01T11:31:57;22.48;;;13.18;;
28174;SDS011;59417;44.788;10.334;2023-03-01T11:37:16;19.50;;;12.75;;
28174;SDS011;59417;44.788;10.334;2023-03-01T11:39:52;21.00;;;11.65;;
28174;SDS011;59417;44.788;10.334;2023-03-01T11:45:12;21.95;;;11.30;;
28174;SDS011;59417;44.788;10.334;2023-03-01T11:50:26;18.63;;;11.73;;
28174;SDS011;59417;44.788;10.334;2023-03-01T12:11:11;20.55;;;14.52;;
28174;SDS011;59417;44.788;10.334;2023-03-01T12:16:52;31.85;;;17.15;;
28174;SDS011;59417;44.788;10.334;2023-03-01T12:30:51;27.70;;;17.67;;
28174;SDS011;59417;44.788;10.334;2023-03-01T12:42:36;26.27;;;17.80;;
28174;SDS011;59417;44.788;10.334;2023-03-01T12:45:19;25.15;;;16.67;;
28174;SDS011;59417;44.788;10.334;2023-03-01T12:50:53;27.05;;;16.08;;
28174;SDS011;59417;44.788;10.334;2023-03-01T12:53:29;27.25;;;17.38;;
28174;SDS011;59417;44.788;10.334;2023-03-01T12:56:05;27.00;;;17.83;;
28174;SDS011;59417;44.788;10.334;2023-03-01T12:58:39;25.83;;;16.55;;
28174;SDS011;59417;44.788;10.334;2023-03-01T13:01:35;29.40;;;17.63;;
28174;SDS011;59417;44.788;10.334;2023-03-01T13:06:44;28.92;;;17.10;;
28174;SDS011;59417;44.788;10.334;2023-03-01T13:11:51;27.23;;;16.85;;
28174;SDS011;59417;44.788;10.334;2023-03-01T13:16:45;25.50;;;16.25;;
28174;SDS011;59417;44.788;10.334;2023-03-01T13:19:24;28.42;;;16.63;;
28174;SDS011;59417;44.788;10.334;2023-03-01T13:21:52;24.40;;;17.20;;
28174;SDS011;59417;44.788;10.334;2023-03-01T13:24:25;31.02;;;19.00;;
28174;SDS011;59417;44.788;10.334;2023-03-01T13:29:46;28.00;;;16.25;;
28174;SDS011;59417;44.788;10.334;2023-03-01T13:37:42;35.75;;;17.80;;
28174;SDS011;59417;44.788;10.334;2023-03-01T13:42:49;30.67;;;16.80;;
28174;SDS011;59417;44.788;10.334;2023-03-01T13:47:45;28.73;;;17.63;;
28174;SDS011;59417;44.788;10.334;2023-03-01T13:50:21;29.65;;;17.80;;
28174;SDS011;59417;44.788;10.334;2023-03-01T13:57:55;33.67;;;18.98;;
28174;SDS011;59417;44.788;10.334;2023-03-01T14:00:36;27.37;;;19.00;;
28174;SDS011;59417;44.788;10.334;2023-03-01T14:05:30;30.67;;;20.83;;
28174;SDS011;59417;44.788;10.334;2023-03-01T14:07:57;30.17;;;19.80;;
28174;SDS011;59417;44.788;10.334;2023-03-01T14:10:22;31.55;;;18.98;;
28174;SDS011;59417;44.788;10.334;2023-03-01T14:13:10;31.67;;;18.98;;
28174;SDS011;59417;44.788;10.334;2023-03-01T14:16:18;28.83;;;18.40;;
28174;SDS011;59417;44.788;10.334;2023-03-01T14:18:58;32.38;;;18.25;;
28174;SDS011;59417;44.788;10.334;2023-03-01T14:21:32;33.17;;;17.33;;
28174;SDS011;59417;44.788;10.334;2023-03-01T14:23:58;26.52;;;17.05;;
28174;SDS011;59417;44.788;10.334;2023-03-01T14:26:26;27.13;;;17.20;;
28174;SDS011;59417;44.788;10.334;2023-03-01T14:28:52;26.65;;;17.40;;
28174;SDS011;59417;44.788;10.334;2023-03-01T14:31:38;26.25;;;17.70;;
28174;SDS011;59417;44.788;10.334;2023-03-01T14:34:04;32.15;;;18.67;;
28174;SDS011;59417;44.788;10.334;2023-03-01T14:36:31;35.35;;;19.05;;
28174;SDS011;59417;44.788;10.334;2023-03-01T14:38:59;28.25;;;19.13;;
28174;SDS011;59417;44.788;10.334;2023-03-01T14:41:31;30.83;;;17.20;;
28174;SDS011;59417;44.788;10.334;2023-03-01T14:44:01;35.20;;;20.02;;
28174;SDS011;59417;44.788;10.334;2023-03-01T14:46:43;30.42;;;20.45;;
28174;SDS011;59417;44.788;10.334;2023-03-01T14:51:39;28.80;;;17.85;;
28174;SDS011;59417;44.788;10.334;2023-03-01T14:56:59;31.58;;;19.85;;
28174;SDS011;59417;44.788;10.334;2023-03-01T14:59:28;30.73;;;20.05;;
28174;SDS011;59417;44.788;10.334;2023-03-01T15:01:59;29.88;;;19.17;;
28174;SDS011;59417;44.788;10.334;2023-03-01T15:04:37;32.90;;;19.85;;
28174;SDS011;59417;44.788;10.334;2023-03-01T15:07:03;28.00;;;17.73;;
28174;SDS011;59417;44.788;10.334;2023-03-01T15:09:30;28.83;;;17.38;;
28174;SDS011;59417;44.788;10.334;2023-03-01T15:12:22;27.65;;;19.58;;
28174;SDS011;59417;44.788;10.334;2023-03-01T15:14:57;30.25;;;18.30;;
28174;SDS011;59417;44.788;10.334;2023-03-01T15:19:58;28.45;;;19.20;;
28174;SDS011;59417;44.788;10.334;2023-03-01T15:22:25;30.85;;;18.85;;
28174;SDS011;59417;44.788;10.334;2023-03-01T15:24:52;28.83;;;17.92;;
28174;SDS011;59417;44.788;10.334;2023-03-01T15:27:22;29.52;;;19.73;;
28174;SDS011;59417;44.788;10.334;2023-03-01T15:29:56;27.92;;;18.83;;
28174;SDS011;59417;44.788;10.334;2023-03-01T15:32:27;26.83;;;18.27;;
28174;SDS011;59417;44.788;10.334;2023-03-01T15:34:55;27.23;;;18.50;;
28174;SDS011;59417;44.788;10.334;2023-03-01T15:40:21;27.73;;;18.23;;
28174;SDS011;59417;44.788;10.334;2023-03-01T15:43:03;33.42;;;19.60;;
28174;SDS011;59417;44.788;10.334;2023-03-01T15:45:31;27.52;;;17.60;;
28174;SDS011;59417;44.788;10.334;2023-03-01T15:48:04;27.70;;;18.25;;
28174;SDS011;59417;44.788;10.334;2023-03-01T15:50:40;25.92;;;18.65;;
28174;SDS011;59417;44.788;10.334;2023-03-01T15:53:11;28.30;;;18.23;;
28174;SDS011;59417;44.788;10.334;2023-03-01T15:55:41;30.02;;;19.20;;
28174;SDS011;59417;44.788;10.334;2023-03-01T15:58:19;31.90;;;18.85;;
28174;SDS011;59417;44.788;10.334;2023-03-01T16:00:49;31.02;;;19.77;;
28174;SDS011;59417;44.788;10.334;2023-03-01T16:03:21;34.17;;;19.05;;
28174;SDS011;59417;44.788;10.334;2023-03-01T16:05:48;31.17;;;18.85;;
28174;SDS011;59417;44.788;10.334;2023-03-01T16:08:15;27.02;;;18.67;;
28174;SDS011;59417;44.788;10.334;2023-03-01T16:10:41;30.45;;;20.02;;
28174;SDS011;59417;44.788;10.334;2023-03-01T16:13:10;26.75;;;19.20;;
28174;SDS011;59417;44.788;10.334;2023-03-01T16:15:36;31.70;;;19.55;;
28174;SDS011;59417;44.788;10.334;2023-03-01T16:18:06;26.38;;;17.92;;
28174;SDS011;59417;44.788;10.334;2023-03-01T16:20:37;24.88;;;15.80;;
28174;SDS011;59417;44.788;10.334;2023-03-01T16:23:04;30.30;;;19.40;;
28174;SDS011;59417;44.788;10.334;2023-03-01T16:25:32;30.20;;;19.92;;
28174;SDS011;59417;44.788;10.334;2023-03-01T16:28:00;28.83;;;19.10;;
28174;SDS011;59417;44.788;10.334;2023-03-01T16:30:30;30.63;;;19.73;;
28174;SDS011;59417;44.788;10.334;2023-03-01T16:32:56;26.38;;;17.58;;
28174;SDS011;59417;44.788;10.334;2023-03-01T16:35:22;28.60;;;18.10;;
28174;SDS011;59417;44.788;10.334;2023-03-01T16:37:48;27.55;;;17.45;;
28174;SDS011;59417;44.788;10.334;2023-03-01T16:42:46;25.30;;;16.73;;
28174;SDS011;59417;44.788;10.334;2023-03-01T16:45:12;24.20;;;17.17;;
28174;SDS011;59417;44.788;10.334;2023-03-01T16:47:38;25.90;;;18.48;;
28174;SDS011;59417;44.788;10.334;2023-03-01T16:50:03;29.25;;;18.70;;